createdAt,value
2023-05-23T00:04:16.907Z,745.67
2023-05-23T00:14:18.398Z,766.92
2023-05-23T00:24:20.366Z,786.50
2023-05-23T00:34:22.175Z,907.15
2023-05-23T00:44:23.644Z,1089.97
2023-05-23T00:54:27.101Z,890.70
2023-05-23T01:04:28.611Z,919.83
2023-05-23T01:14:38.291Z,905.13
2023-05-23T01:24:57.454Z,869.75
2023-05-23T01:45:00.451Z,823.20
2023-05-23T01:55:02.285Z,801.45
2023-05-23T02:05:04.353Z,762.58
2023-05-23T02:15:06.232Z,805.97
2023-05-23T02:25:08.169Z,974.83
2023-05-23T02:35:10.802Z,1071.05
2023-05-23T02:45:12.230Z,1159.38
2023-05-23T02:55:13.673Z,957.00
2023-05-23T03:05:15.208Z,751.92
2023-05-23T03:15:16.652Z,980.42
2023-05-23T03:25:18.091Z,1204.13
2023-05-23T03:35:19.517Z,1024.47
2023-05-23T03:45:20.907Z,1128.53
2023-05-23T03:55:24.051Z,1108.38
2023-05-23T04:05:25.811Z,848.67
2023-05-23T04:15:29.260Z,768.25
2023-05-23T04:25:31.122Z,730.85
2023-05-23T04:35:34.231Z,711.13
2023-05-23T04:45:36.544Z,738.95
2023-05-23T04:55:38.089Z,737.47
2023-05-23T05:05:39.906Z,726.78
2023-05-23T05:15:41.632Z,736.97
2023-05-23T05:25:43.270Z,844.92
2023-05-23T05:35:44.699Z,826.90
2023-05-23T05:45:46.278Z,780.97
2023-05-23T05:55:47.862Z,776.33
2023-05-23T06:05:49.275Z,848.35
2023-05-23T06:15:50.767Z,848.63
2023-05-23T06:25:52.401Z,818.03
2023-05-23T06:35:53.828Z,819.60
2023-05-23T06:45:55.300Z,780.67
2023-05-23T06:55:59.053Z,775.17
2023-05-23T07:06:00.644Z,733.83
2023-05-23T07:16:02.228Z,703.90
2023-05-23T07:26:03.808Z,683.10
2023-05-23T07:36:05.375Z,661.92
2023-05-23T07:46:06.894Z,615.75
2023-05-23T07:56:08.396Z,642.80
2023-05-23T08:06:09.832Z,588.90
2023-05-23T08:16:11.318Z,604.17
2023-05-23T08:26:13.408Z,606.92
2023-05-23T08:36:14.846Z,623.78
2023-05-23T08:46:16.683Z,577.20
2023-05-23T08:56:19.310Z,592.92
2023-05-23T09:06:21.240Z,603.55
2023-05-23T09:16:23.356Z,555.05
2023-05-23T09:26:24.857Z,564.63
2023-05-23T09:36:29.238Z,586.45
2023-05-23T09:46:30.710Z,596.40
2023-05-23T09:56:32.251Z,579.35
2023-05-23T10:06:49.138Z,557.28
2023-05-23T10:17:03.869Z,551.67
2023-05-23T10:27:05.597Z,573.28
2023-05-23T10:37:07.735Z,566.22
2023-05-23T10:47:09.406Z,551.25
2023-05-23T10:57:12.709Z,509.35
2023-05-23T11:07:32.787Z,582.75
2023-05-23T11:17:34.382Z,548.92
2023-05-23T11:27:37.864Z,573.15
2023-05-23T11:37:39.900Z,542.17
2023-05-23T11:47:41.738Z,542.92
2023-05-23T11:57:43.359Z,519.88
2023-05-23T12:07:47.047Z,606.67
2023-05-23T12:17:49.636Z,571.75
2023-05-23T12:27:51.086Z,551.67
2023-05-23T12:37:54.832Z,556.30
2023-05-23T12:47:56.330Z,534.45
2023-05-23T12:57:57.750Z,596.63
2023-05-23T13:07:59.677Z,566.67
2023-05-23T13:18:02.160Z,540.33
2023-05-23T13:28:03.701Z,565.28
2023-05-23T13:38:05.408Z,529.40
2023-05-23T13:48:06.908Z,502.23
2023-05-23T13:58:08.383Z,542.20
2023-05-23T14:08:11.154Z,508.65
2023-05-23T14:18:12.739Z,549.58
2023-05-23T14:28:14.367Z,510.80
2023-05-23T14:38:16.137Z,506.58
2023-05-23T14:48:17.581Z,527.28
2023-05-23T14:58:19.134Z,477.50
2023-05-23T15:08:20.770Z,495.52
2023-05-23T15:18:38.799Z,521.50
2023-05-23T15:28:42.625Z,531.83
2023-05-23T15:38:44.367Z,482.33
2023-05-23T15:48:45.783Z,485.65
2023-05-23T15:58:47.206Z,456.30
2023-05-23T16:08:48.631Z,486.15
2023-05-23T16:18:50.146Z,536.28
2023-05-23T16:28:51.590Z,481.95
2023-05-23T16:38:55.305Z,510.63
2023-05-23T16:48:57.074Z,550.88
2023-05-23T16:58:58.510Z,557.33
2023-05-23T17:09:00.174Z,590.95
2023-05-23T17:19:01.794Z,562.60
2023-05-23T17:29:03.297Z,595.55
2023-05-23T17:39:04.987Z,530.95
2023-05-23T17:49:07.085Z,586.80
2023-05-23T17:59:08.720Z,579.47
2023-05-23T18:09:10.152Z,593.63
2023-05-23T18:19:11.645Z,543.42
2023-05-23T18:29:13.275Z,547.67
2023-05-23T18:39:18.821Z,585.53
2023-05-23T18:49:20.409Z,565.42
2023-05-23T18:59:21.996Z,576.17
2023-05-23T19:09:23.597Z,626.95
2023-05-23T19:19:25.190Z,603.03
2023-05-23T19:29:26.784Z,663.47
2023-05-23T19:39:28.245Z,690.67
2023-05-23T19:49:29.736Z,759.90
2023-05-23T19:59:31.194Z,770.45
2023-05-23T20:09:32.766Z,750.03
2023-05-23T20:19:34.946Z,845.45
2023-05-23T20:29:36.451Z,913.38
2023-05-23T20:39:38.629Z,1053.82
2023-05-23T20:49:40.076Z,995.03
2023-05-23T20:59:41.527Z,1039.13
2023-05-23T21:09:42.964Z,1048.78
2023-05-23T21:19:44.380Z,1067.78
2023-05-23T21:29:47.128Z,1039.95
2023-05-23T21:39:52.039Z,1004.67
2023-05-23T21:49:54.153Z,1028.30
2023-05-23T21:59:55.610Z,1055.53
2023-05-23T22:09:57.115Z,1060.60
2023-05-23T22:20:00.610Z,1051.10
2023-05-23T22:30:02.320Z,1015.97
2023-05-23T22:40:03.943Z,1015.83
2023-05-23T22:50:05.763Z,1001.53
2023-05-23T23:00:07.910Z,1019.50
2023-05-23T23:10:09.891Z,1007.92
2023-05-23T23:20:12.638Z,987.55
2023-05-23T23:30:14.456Z,981.47
2023-05-23T23:40:16.079Z,969.30
2023-05-23T23:50:17.604Z,977.85
